Andrews AFB, Maryland
Current Conditions -  °F | °C
As of 6:58 PM on Saturday 25 Oct 2014 (Local Time) from KADW Reporting Station
Clear Clear  
Wind Chill: 62°   Ceiling: Unl
Heat Index: 62°   Visibility: 10mi
Dew Point: 40°   Wind: 8mph
Humidity: 44%   Direction: 210°SSW
Pressure: 29.74"   Gusts: NA
Location:  38.8°N, 76.87°W
Report Text: KADW 252258Z AUTO 21007KT 10SM CLR 17/04 A2974 RMK AO2 SLP078 T01670044 $
Loading
Personal Weather Stations






























Interactive Weather Map
Tropical Storm Tracking
New forecast layout! Learn more

10-Day Weather Forecast

Advertisements
Track Severe Weather on mobile